TimeCDT,TemperatureF,Dew PointF,Humidity,Sea Level PressureIn,VisibilityMPH,Wind Direction,Wind SpeedMPH,Gust SpeedMPH,PrecipitationIn,Events,Conditions,WindDirDegrees,DateUTC
12:54 AM,39.0,30.9,73,30.03,10.0,NNW,10.4,-,N/A,,Overcast,340,2013-04-24 05:54:00
1:54 AM,39.0,30.9,73,30.01,10.0,NNW,9.2,-,N/A,,Overcast,340,2013-04-24 06:54:00
2:54 AM,39.0,30.0,70,29.99,10.0,North,10.4,-,N/A,,Overcast,360,2013-04-24 07:54:00
3:54 AM,37.9,30.0,73,30.01,10.0,NNW,5.8,-,N/A,,Overcast,340,2013-04-24 08:54:00
4:54 AM,37.0,28.0,70,30.03,10.0,NNW,4.6,-,N/A,,Overcast,330,2013-04-24 09:54:00
5:54 AM,36.0,28.0,73,30.04,10.0,NNW,6.9,-,N/A,,Overcast,340,2013-04-24 10:54:00
6:54 AM,36.0,28.0,73,30.05,10.0,NNW,6.9,-,N/A,,Overcast,330,2013-04-24 11:54:00
7:54 AM,37.0,28.0,70,30.07,10.0,NW,10.4,-,N/A,,Mostly Cloudy,320,2013-04-24 12:54:00
8:54 AM,37.9,27.0,65,30.06,10.0,NNW,8.1,-,N/A,,Mostly Cloudy,340,2013-04-24 13:54:00
9:54 AM,41.0,27.0,57,30.09,10.0,NW,11.5,-,N/A,,Mostly Cloudy,320,2013-04-24 14:54:00
10:54 AM,45.0,27.0,49,30.09,10.0,WNW,6.9,18.4,N/A,,Mostly Cloudy,300,2013-04-24 15:54:00
11:54 AM,45.0,24.1,44,30.07,10.0,WNW,16.1,20.7,N/A,,Mostly Cloudy,300,2013-04-24 16:54:00
12:54 PM,46.0,24.1,42,30.07,10.0,NW,10.4,18.4,N/A,,Scattered Clouds,320,2013-04-24 17:54:00
1:54 PM,50.0,27.0,41,30.07,10.0,WNW,11.5,20.7,N/A,,Scattered Clouds,300,2013-04-24 18:54:00
2:54 PM,51.1,25.0,36,30.07,10.0,West,17.3,20.7,N/A,,Scattered Clouds,280,2013-04-24 19:54:00
3:54 PM,51.1,25.0,36,30.07,10.0,West,15.0,-,N/A,,Scattered Clouds,260,2013-04-24 20:54:00
4:54 PM,52.0,25.0,35,30.06,10.0,West,9.2,21.9,N/A,,Partly Cloudy,260,2013-04-24 21:54:00
5:54 PM,51.1,26.1,38,30.08,10.0,West,11.5,19.6,N/A,,Partly Cloudy,260,2013-04-24 22:54:00
6:54 PM,50.0,26.1,39,30.08,10.0,WSW,8.1,-,N/A,,Partly Cloudy,240,2013-04-24 23:54:00
7:54 PM,48.0,26.1,42,30.09,10.0,SW,10.4,-,N/A,,Partly Cloudy,230,2013-04-25 00:54:00
8:54 PM,46.0,28.0,50,30.11,10.0,SSW,9.2,-,N/A,,Partly Cloudy,210,2013-04-25 01:54:00
9:54 PM,44.1,30.0,58,30.11,10.0,SSW,10.4,-,N/A,,Partly Cloudy,200,2013-04-25 02:54:00
10:54 PM,43.0,30.9,62,30.10,10.0,SSW,11.5,-,N/A,,Partly Cloudy,210,2013-04-25 03:54:00
11:54 PM,42.1,30.9,65,30.09,10.0,SSW,12.7,-,N/A,,Scattered Clouds,200,2013-04-25 04:54:00